Time;durP1;ratioP1;P1;durP2;ratioP2;P2;SDS_P1;SDS_P2;PMS_P1;PMS_P2;Temp;Humidity;BMP_temperature;BMP_pressure;BME280_temperature;BME280_humidity;BME280_pressure;Samples;Min_cycle;Max_cycle;Signal;HPM_P1;HPM_P2
2022/08/18 00:00:01;;;;;;;;;;;22.40;99.90;;;;;;5085475;28;19984;-70
2022/08/18 00:02:29;;;;;;;;;;;22.40;99.90;;;;;;5085215;28;19921;-70
2022/08/18 00:04:56;;;;;;;;;;;22.30;99.90;;;;;;5085122;28;19920;-70
2022/08/18 00:07:24;;;;;;;;;;;22.30;99.90;;;;;;5084666;28;20139;-70
2022/08/18 00:09:51;;;;;;;;;;;22.20;99.90;;;;;;5085186;28;19979;-70
2022/08/18 00:12:19;;;;;;;;;;;22.20;99.90;;;;;;5084977;28;19963;-70
2022/08/18 00:14:48;;;;;;;;;;;22.20;99.90;;;;;;5084718;28;19927;-70
2022/08/18 00:17:15;;;;;;;;;;;22.10;99.90;;;;;;5084984;28;19956;-71
2022/08/18 00:19:41;;;;;;;;;;;22.00;99.90;;;;;;5085097;28;19962;-70
2022/08/18 00:22:09;;;;;;;;;;;22.00;99.90;;;;;;5084743;28;20208;-71
2022/08/18 00:24:37;;;;;;;;;;;22.00;99.90;;;;;;5084333;28;19983;-71
2022/08/18 00:27:04;;;;;;;;;;;21.80;99.90;;;;;;5084171;28;19944;-70
2022/08/18 00:29:31;;;;;;;;;;;21.80;99.90;;;;;;5084656;28;19927;-70
2022/08/18 00:31:59;;;;;;;;;;;21.70;99.90;;;;;;5084704;28;19988;-70
2022/08/18 00:34:26;;;;;;;;;;;21.50;99.90;;;;;;5084589;28;19921;-70
2022/08/18 00:36:52;;;;;;;;;;;21.40;99.90;;;;;;5084531;28;19956;-69
2022/08/18 00:39:19;;;;;;;;;;;21.30;99.90;;;;;;5084480;28;19973;-70
2022/08/18 00:41:46;;;;;;;;;;;21.20;99.90;;;;;;5084446;28;19960;-70
2022/08/18 00:44:15;;;;;;;;;;;21.20;99.90;;;;;;5084310;28;19988;-70
2022/08/18 00:46:41;;;;;;;;;;;21.10;99.90;;;;;;5084289;28;19958;-71
2022/08/18 00:49:09;;;;;;;;;;;20.90;99.90;;;;;;5084474;28;19943;-71
2022/08/18 00:51:38;;;;;;;;;;;20.80;99.90;;;;;;5084179;28;19921;-71
2022/08/18 00:54:06;;;;;;;;;;;20.80;99.90;;;;;;5083691;28;19967;-71
2022/08/18 00:56:35;;;;;;;;;;;20.60;99.90;;;;;;5084400;28;20000;-71
2022/08/18 00:59:05;;;;;;;;;;;20.60;99.90;;;;;;5084069;28;20207;-71
2022/08/18 01:01:32;;;;;;;;;;;20.40;99.90;;;;;;5084184;28;19952;-71
2022/08/18 01:04:02;;;;;;;;;;;20.30;99.90;;;;;;5083741;28;19964;-71
2022/08/18 01:06:34;;;;;;;;;;;20.20;99.90;;;;;;5083230;28;19927;-71
2022/08/18 01:09:02;;;;;;;;;;;20.00;99.90;;;;;;5084128;28;19983;-71
2022/08/18 01:11:28;;;;;;;;;;;20.00;99.90;;;;;;5084131;28;19928;-71
2022/08/18 01:13:55;;;;;;;;;;;19.90;99.90;;;;;;5083573;28;19943;-71
2022/08/18 01:22:01;;;;;;;;;;;19.80;99.90;;;;;;5083905;28;19923;-71
2022/08/18 01:27:17;;;;;;;;;;;19.70;99.90;;;;;;5083594;28;20247;-71
2022/08/18 01:29:44;;;;;;;;;;;19.60;99.90;;;;;;5083748;28;20107;-71
2022/08/18 01:32:12;;;;;;;;;;;19.60;99.90;;;;;;5083714;28;19920;-71
2022/08/18 01:34:38;;;;;;;;;;;19.50;99.90;;;;;;5083161;28;19924;-71
2022/08/18 01:37:05;;;;;;;;;;;19.50;99.90;;;;;;5083317;28;20146;-70
2022/08/18 01:39:33;;;;;;;;;;;19.50;99.90;;;;;;5083470;28;20254;-70
2022/08/18 01:42:03;;;;;;;;;;;19.50;99.90;;;;;;5083365;28;20226;-70
2022/08/18 01:44:30;;;;;;;;;;;19.50;99.90;;;;;;5083108;28;19999;-71
2022/08/18 01:46:56;;;;;;;;;;;19.50;99.90;;;;;;5083707;28;19927;-71
2022/08/18 01:49:23;;;;;;;;;;;19.50;99.90;;;;;;5083514;28;19952;-71
2022/08/18 01:51:51;;;;;;;;;;;19.50;99.90;;;;;;5083270;28;19988;-71
2022/08/18 01:54:18;;;;;;;;;;;19.50;99.90;;;;;;5082884;28;20251;-71
2022/08/18 01:56:47;;;;;;;;;;;19.50;99.90;;;;;;5083198;28;19988;-71
2022/08/18 01:59:13;;;;;;;;;;;19.50;99.90;;;;;;5083352;28;19921;-71
2022/08/18 02:01:41;;;;;;;;;;;19.50;99.90;;;;;;5083225;28;19928;-71
2022/08/18 02:04:09;;;;;;;;;;;19.50;99.90;;;;;;5082911;28;20003;-71
2022/08/18 02:06:36;;;;;;;;;;;19.60;99.90;;;;;;5082017;28;19921;-71
2022/08/18 02:09:03;;;;;;;;;;;19.60;99.90;;;;;;5083279;28;20212;-71
2022/08/18 02:11:30;;;;;;;;;;;19.60;99.90;;;;;;5083197;28;19959;-71
2022/08/18 02:13:58;;;;;;;;;;;19.70;99.90;;;;;;5082818;28;19959;-71
2022/08/18 02:16:25;;;;;;;;;;;19.70;99.90;;;;;;5083076;28;20295;-71
2022/08/18 02:18:52;;;;;;;;;;;19.70;99.90;;;;;;5083092;28;20208;-71
2022/08/18 02:21:20;;;;;;;;;;;19.70;99.90;;;;;;5082904;28;19920;-71
2022/08/18 02:23:47;;;;;;;;;;;19.70;99.90;;;;;;5082478;28;19975;-71
2022/08/18 02:26:15;;;;;;;;;;;19.70;99.90;;;;;;5082994;28;20275;-71
2022/08/18 02:28:41;;;;;;;;;;;19.70;99.90;;;;;;5083206;28;19921;-71
2022/08/18 02:31:11;;;;;;;;;;;19.70;99.90;;;;;;5083039;28;19956;-71
2022/08/18 02:33:39;;;;;;;;;;;19.60;99.90;;;;;;5082649;28;19991;-70
2022/08/18 02:36:06;;;;;;;;;;;19.60;99.90;;;;;;5083154;28;19920;-70
2022/08/18 02:38:33;;;;;;;;;;;19.60;99.90;;;;;;5083092;28;20093;-70
2022/08/18 02:41:01;;;;;;;;;;;19.60;99.90;;;;;;5083071;28;19927;-70
2022/08/18 02:43:28;;;;;;;;;;;19.60;99.90;;;;;;5082430;28;19987;-70
2022/08/18 02:45:55;;;;;;;;;;;19.60;99.90;;;;;;5082665;28;19928;-70
2022/08/18 02:48:24;;;;;;;;;;;19.60;99.90;;;;;;5082936;28;19927;-70
2022/08/18 02:50:51;;;;;;;;;;;19.60;99.90;;;;;;5086709;28;19927;-71
2022/08/18 02:53:21;;;;;;;;;;;19.50;99.90;;;;;;5086258;28;19927;-71
2022/08/18 02:55:48;;;;;;;;;;;19.60;99.90;;;;;;5086502;28;19943;-71
2022/08/18 02:58:15;;;;;;;;;;;19.60;99.90;;;;;;5086487;28;19932;-71
2022/08/18 03:00:42;;;;;;;;;;;19.50;99.90;;;;;;5086508;28;19963;-71
2022/08/18 03:03:09;;;;;;;;;;;19.50;99.90;;;;;;5085977;28;19927;-70
2022/08/18 03:05:37;;;;;;;;;;;19.50;99.90;;;;;;5086439;28;19992;-70
2022/08/18 03:08:03;;;;;;;;;;;19.50;99.90;;;;;;5085575;28;19921;-70
2022/08/18 03:10:30;;;;;;;;;;;19.40;99.90;;;;;;5086542;28;19959;-71
2022/08/18 03:12:57;;;;;;;;;;;19.40;99.90;;;;;;5085978;28;19997;-71
2022/08/18 03:15:24;;;;;;;;;;;19.40;99.90;;;;;;5086243;28;19988;-70
2022/08/18 03:17:51;;;;;;;;;;;19.40;99.90;;;;;;5085977;28;19951;-71
2022/08/18 03:20:18;;;;;;;;;;;19.50;99.90;;;;;;5086255;28;20003;-70
2022/08/18 03:22:46;;;;;;;;;;;19.40;99.90;;;;;;5085903;28;19991;-71
2022/08/18 03:25:13;;;;;;;;;;;19.40;99.90;;;;;;5085891;28;19967;-70
2022/08/18 03:27:39;;;;;;;;;;;19.40;99.90;;;;;;5086084;28;20162;-70
2022/08/18 03:30:07;;;;;;;;;;;19.30;99.90;;;;;;5085796;28;20180;-71
2022/08/18 03:32:33;;;;;;;;;;;19.30;99.90;;;;;;5085624;28;19987;-70
2022/08/18 03:35:00;;;;;;;;;;;19.30;99.90;;;;;;5085625;28;19987;-71
2022/08/18 03:37:26;;;;;;;;;;;19.30;99.90;;;;;;5085701;28;19920;-70
2022/08/18 03:39:54;;;;;;;;;;;19.30;99.90;;;;;;5085815;28;19927;-70
2022/08/18 03:42:21;;;;;;;;;;;19.30;99.90;;;;;;5085643;28;19983;-71
2022/08/18 03:44:48;;;;;;;;;;;19.30;99.90;;;;;;5085088;28;19988;-70
2022/08/18 03:47:16;;;;;;;;;;;19.30;99.90;;;;;;5085774;28;19979;-70
2022/08/18 03:49:43;;;;;;;;;;;19.30;99.90;;;;;;5085445;28;19921;-71
2022/08/18 03:52:10;;;;;;;;;;;19.30;99.90;;;;;;5085528;28;19996;-71
2022/08/18 03:54:37;;;;;;;;;;;19.40;99.90;;;;;;5085002;28;20366;-71
2022/08/18 03:57:07;;;;;;;;;;;19.40;99.90;;;;;;5085327;28;20118;-71
2022/08/18 03:59:33;;;;;;;;;;;19.40;99.90;;;;;;5084919;28;20263;-70
2022/08/18 04:02:02;;;;;;;;;;;19.40;99.90;;;;;;5085216;28;20291;-70
2022/08/18 04:04:29;;;;;;;;;;;19.40;99.90;;;;;;5084830;28;19921;-70
2022/08/18 04:06:57;;;;;;;;;;;19.30;99.90;;;;;;5084357;28;19952;-70
2022/08/18 04:09:24;;;;;;;;;;;19.40;99.90;;;;;;5085142;28;19928;-70
2022/08/18 04:11:51;;;;;;;;;;;19.30;99.90;;;;;;5085157;28;19959;-70
2022/08/18 04:14:22;;;;;;;;;;;19.30;99.90;;;;;;5099737;22;19955;-70
2022/08/18 04:16:49;;;;;;;;;;;19.30;99.90;;;;;;5104257;28;19928;-69
2022/08/18 04:19:16;;;;;;;;;;;19.30;99.90;;;;;;5105280;28;19920;-70
2022/08/18 04:21:44;;;;;;;;;;;19.20;99.90;;;;;;5104267;28;20112;-69
2022/08/18 04:24:12;;;;;;;;;;;19.10;99.90;;;;;;5104757;28;19920;-69
2022/08/18 04:26:40;;;;;;;;;;;19.10;99.90;;;;;;5105620;28;20199;-69
2022/08/18 04:29:07;;;;;;;;;;;19.00;99.90;;;;;;5105097;28;20207;-69
2022/08/18 04:31:35;;;;;;;;;;;19.00;99.90;;;;;;5105304;28;19979;-70
2022/08/18 04:34:03;;;;;;;;;;;19.00;99.90;;;;;;5104775;28;19926;-69
2022/08/18 04:36:30;;;;;;;;;;;19.00;99.90;;;;;;5104726;28;20212;-69
2022/08/18 04:38:58;;;;;;;;;;;18.90;99.90;;;;;;5104747;28;20245;-70
2022/08/18 04:41:26;;;;;;;;;;;19.00;99.90;;;;;;5105055;28;19920;-69
2022/08/18 04:43:53;;;;;;;;;;;19.10;99.90;;;;;;5104602;28;19924;-69
2022/08/18 04:46:19;;;;;;;;;;;19.10;99.90;;;;;;5104578;28;19955;-69
2022/08/18 04:48:47;;;;;;;;;;;19.10;99.90;;;;;;5104597;28;19920;-70
2022/08/18 04:51:15;;;;;;;;;;;19.10;99.90;;;;;;5104731;28;19920;-70
2022/08/18 04:53:44;;;;;;;;;;;19.20;99.90;;;;;;5104488;28;19927;-69
2022/08/18 04:56:13;;;;;;;;;;;19.10;99.90;;;;;;5104851;28;19983;-70
2022/08/18 04:58:40;;;;;;;;;;;19.20;99.90;;;;;;5104599;28;20131;-69
2022/08/18 05:01:08;;;;;;;;;;;19.20;99.90;;;;;;5104477;28;19975;-69
2022/08/18 05:03:37;;;;;;;;;;;19.20;99.90;;;;;;5103972;28;20115;-69
2022/08/18 05:06:06;;;;;;;;;;;19.30;99.90;;;;;;5103210;28;19974;-69
2022/08/18 05:08:33;;;;;;;;;;;19.30;99.90;;;;;;5104141;28;19955;-70
2022/08/18 05:10:59;;;;;;;;;;;19.20;99.90;;;;;;5104391;28;19955;-69
2022/08/18 05:13:26;;;;;;;;;;;19.20;99.90;;;;;;5103698;28;19920;-70
2022/08/18 05:15:53;;;;;;;;;;;19.20;99.90;;;;;;5103980;28;19979;-69
2022/08/18 05:18:23;;;;;;;;;;;19.20;99.90;;;;;;5104383;28;19998;-69
2022/08/18 05:20:50;;;;;;;;;;;19.20;99.90;;;;;;5104306;28;19927;-69
2022/08/18 05:23:18;;;;;;;;;;;19.30;99.90;;;;;;5103859;28;19920;-70
2022/08/18 05:25:45;;;;;;;;;;;19.20;99.90;;;;;;5104077;28;19983;-69
2022/08/18 05:28:12;;;;;;;;;;;19.20;99.90;;;;;;5103860;28;19956;-70
2022/08/18 05:30:39;;;;;;;;;;;19.20;99.90;;;;;;5103970;28;20258;-69
2022/08/18 05:33:09;;;;;;;;;;;19.30;99.90;;;;;;5103477;28;20212;-69
2022/08/18 05:35:37;;;;;;;;;;;19.30;99.90;;;;;;5103702;28;19924;-70
2022/08/18 05:38:10;;;;;;;;;;;19.50;99.90;;;;;;5104313;28;20241;-70
2022/08/18 05:40:38;;;;;;;;;;;19.50;99.90;;;;;;5105328;28;19920;-69
2022/08/18 05:43:06;;;;;;;;;;;19.60;99.90;;;;;;5104985;28;19920;-69
2022/08/18 05:45:34;;;;;;;;;;;19.60;99.90;;;;;;5105289;28;20207;-69
2022/08/18 05:48:01;;;;;;;;;;;19.70;99.90;;;;;;5106063;28;19928;-69
2022/08/18 05:50:28;;;;;;;;;;;19.80;99.90;;;;;;5105169;28;19920;-69
2022/08/18 05:52:57;;;;;;;;;;;19.80;99.90;;;;;;5103232;28;20212;-69
2022/08/18 05:58:14;;;;;;;;;;;20.00;99.90;;;;;;5103565;28;19922;-70
2022/08/18 06:00:42;;;;;;;;;;;20.00;99.90;;;;;;5103765;28;19959;-69
2022/08/18 06:03:13;;;;;;;;;;;20.00;99.90;;;;;;5103205;28;19920;-69
2022/08/18 06:05:43;;;;;;;;;;;20.10;99.90;;;;;;5103193;28;19999;-69
2022/08/18 06:08:10;;;;;;;;;;;20.10;99.90;;;;;;5102409;28;20003;-69
2022/08/18 06:10:37;;;;;;;;;;;20.20;99.90;;;;;;5103554;28;19951;-69
2022/08/18 06:13:07;;;;;;;;;;;20.20;99.90;;;;;;5103242;28;19987;-69
2022/08/18 06:15:39;;;;;;;;;;;20.20;99.90;;;;;;5103296;28;19983;-69
2022/08/18 06:18:21;;;;;;;;;;;20.30;99.90;;;;;;5103362;28;20283;-69
2022/08/18 06:21:05;;;;;;;;;;;20.30;99.90;;;;;;5103379;28;19959;-69
2022/08/18 06:23:35;;;;;;;;;;;20.30;99.90;;;;;;5103725;28;20170;-70
2022/08/18 06:26:05;;;;;;;;;;;20.40;99.90;;;;;;5107288;28;19920;-72
2022/08/18 06:28:38;;;;;;;;;;;20.40;99.90;;;;;;5107395;28;19927;-72
2022/08/18 06:31:10;;;;;;;;;;;20.40;99.90;;;;;;5107356;28;19948;-72
2022/08/18 06:33:44;;;;;;;;;;;20.50;99.90;;;;;;5107026;28;20182;-72
2022/08/18 06:36:14;;;;;;;;;;;20.60;99.90;;;;;;5107292;28;19958;-72
2022/08/18 06:38:48;;;;;;;;;;;20.60;99.90;;;;;;5107263;28;19987;-72
2022/08/18 06:41:16;;;;;;;;;;;20.70;99.90;;;;;;5107368;28;19983;-72
2022/08/18 06:43:50;;;;;;;;;;;20.80;99.90;;;;;;5106804;28;20175;-72
2022/08/18 06:46:20;;;;;;;;;;;20.80;99.90;;;;;;5107013;28;19982;-72
2022/08/18 06:48:50;;;;;;;;;;;20.90;99.90;;;;;;5106906;28;19959;-72
2022/08/18 06:51:19;;;;;;;;;;;20.90;99.90;;;;;;5107162;28;20123;-71
2022/08/18 06:53:51;;;;;;;;;;;21.00;99.90;;;;;;5106610;28;19920;-72
2022/08/18 06:56:22;;;;;;;;;;;21.00;99.90;;;;;;5106715;28;19965;-73
2022/08/18 06:58:49;;;;;;;;;;;21.10;99.90;;;;;;5106565;28;19927;-71
2022/08/18 07:01:17;;;;;;;;;;;21.20;99.90;;;;;;5106848;28;19920;-73
2022/08/18 07:03:49;;;;;;;;;;;21.20;99.90;;;;;;5106513;28;20004;-72
2022/08/18 07:06:25;;;;;;;;;;;21.30;99.90;;;;;;5105510;28;20029;-72
2022/08/18 07:08:53;;;;;;;;;;;21.40;99.90;;;;;;5106541;28;19969;-69
2022/08/18 07:11:22;;;;;;;;;;;21.50;99.90;;;;;;5106435;28;19981;-70
2022/08/18 07:13:50;;;;;;;;;;;21.60;99.90;;;;;;5106262;28;19982;-70
2022/08/18 07:16:18;;;;;;;;;;;21.60;99.90;;;;;;5106313;28;19983;-70
2022/08/18 07:18:46;;;;;;;;;;;21.60;99.90;;;;;;5106464;28;19970;-70
2022/08/18 07:21:24;;;;;;;;;;;21.60;99.90;;;;;;5106360;28;20162;-70
2022/08/18 07:23:58;;;;;;;;;;;21.60;99.90;;;;;;5106256;28;19923;-70
2022/08/18 07:26:24;;;;;;;;;;;21.70;99.90;;;;;;5106077;28;20010;-70
2022/08/18 07:28:52;;;;;;;;;;;21.70;99.90;;;;;;5106064;28;19951;-70
2022/08/18 07:31:24;;;;;;;;;;;21.80;99.90;;;;;;5106076;28;19951;-70
2022/08/18 07:33:56;;;;;;;;;;;21.80;99.90;;;;;;5105827;28;19927;-70
2022/08/18 07:36:24;;;;;;;;;;;21.80;99.90;;;;;;5105601;28;19960;-71
2022/08/18 07:38:54;;;;;;;;;;;21.80;99.90;;;;;;5106165;28;19952;-70
2022/08/18 07:41:22;;;;;;;;;;;21.90;99.90;;;;;;5106031;28;19943;-70
2022/08/18 07:44:05;;;;;;;;;;;21.90;99.90;;;;;;5105791;28;19920;-72
2022/08/18 07:46:35;;;;;;;;;;;22.00;99.90;;;;;;5105572;28;19920;-71
2022/08/18 07:49:04;;;;;;;;;;;22.00;99.90;;;;;;5105790;28;19987;-72
2022/08/18 07:51:42;;;;;;;;;;;22.00;99.90;;;;;;5105787;28;19920;-71
2022/08/18 07:54:12;;;;;;;;;;;22.10;99.90;;;;;;5105483;28;19991;-72
2022/08/18 07:56:42;;;;;;;;;;;22.10;99.90;;;;;;5105693;28;19987;-72
2022/08/18 07:59:12;;;;;;;;;;;22.20;99.90;;;;;;5105462;28;19920;-71
2022/08/18 08:01:41;;;;;;;;;;;22.20;99.90;;;;;;5105729;28;19951;-70
2022/08/18 08:04:13;;;;;;;;;;;22.20;99.90;;;;;;5105544;28;19987;-71
2022/08/18 08:06:42;;;;;;;;;;;22.20;99.90;;;;;;5104415;28;19994;-71
2022/08/18 08:09:13;;;;;;;;;;;22.30;99.90;;;;;;5105504;28;19978;-72
2022/08/18 08:11:44;;;;;;;;;;;22.40;99.90;;;;;;5105221;28;19956;-72
2022/08/18 08:14:21;;;;;;;;;;;22.40;99.90;;;;;;5105269;28;19936;-71
2022/08/18 08:16:49;;;;;;;;;;;22.40;99.90;;;;;;5105530;28;19920;-72
2022/08/18 08:19:33;;;;;;;;;;;22.50;99.90;;;;;;5105310;28;20005;-72
2022/08/18 08:22:03;;;;;;;;;;;22.50;99.90;;;;;;5105036;28;19935;-72
2022/08/18 08:24:34;;;;;;;;;;;22.50;99.90;;;;;;5105233;28;19967;-72
2022/08/18 08:27:08;;;;;;;;;;;22.60;99.90;;;;;;5105197;28;19991;-72
2022/08/18 08:29:38;;;;;;;;;;;22.60;99.90;;;;;;5105240;28;19980;-72
2022/08/18 08:32:05;;;;;;;;;;;22.60;99.90;;;;;;5105038;28;19962;-72
2022/08/18 08:34:39;;;;;;;;;;;22.70;99.90;;;;;;5104482;28;19964;-72
2022/08/18 08:37:08;;;;;;;;;;;22.70;99.90;;;;;;5104891;28;20204;-73
2022/08/18 08:39:37;;;;;;;;;;;22.80;99.90;;;;;;5104861;28;19920;-72
2022/08/18 08:42:08;;;;;;;;;;;22.80;99.90;;;;;;5104751;28;20262;-72
2022/08/18 08:44:39;;;;;;;;;;;22.90;99.90;;;;;;5104286;28;19920;-72
2022/08/18 08:47:10;;;;;;;;;;;22.90;99.90;;;;;;5104049;28;19942;-72
2022/08/18 08:49:40;;;;;;;;;;;23.10;99.90;;;;;;5104894;28;19920;-71
2022/08/18 08:52:11;;;;;;;;;;;23.10;99.90;;;;;;5104736;28;19956;-72
2022/08/18 08:54:41;;;;;;;;;;;23.10;99.90;;;;;;5104145;28;19959;-72
2022/08/18 08:57:09;;;;;;;;;;;23.20;99.90;;;;;;5104454;28;19920;-72
2022/08/18 08:59:37;;;;;;;;;;;23.10;99.90;;;;;;5104386;28;19955;-71
2022/08/18 09:02:13;;;;;;;;;;;23.20;99.90;;;;;;5104531;28;20000;-72
2022/08/18 09:04:47;;;;;;;;;;;23.20;99.90;;;;;;5103840;28;19991;-73
2022/08/18 09:07:22;;;;;;;;;;;23.30;99.90;;;;;;5103235;28;20265;-72
2022/08/18 09:10:07;;;;;;;;;;;23.30;99.90;;;;;;5104227;28;19991;-72
2022/08/18 09:12:47;;;;;;;;;;;23.30;99.90;;;;;;5104019;28;20154;-71
2022/08/18 09:15:23;;;;;;;;;;;23.40;99.90;;;;;;5104266;28;20218;-72
2022/08/18 09:17:55;;;;;;;;;;;23.40;99.90;;;;;;5104124;28;19947;-72
2022/08/18 09:20:33;;;;;;;;;;;23.50;99.90;;;;;;5104103;28;20000;-72
2022/08/18 09:23:04;;;;;;;;;;;23.60;99.90;;;;;;5103728;28;19920;-72
2022/08/18 09:25:32;;;;;;;;;;;23.60;99.90;;;;;;5103645;28;20284;-72
2022/08/18 09:28:07;;;;;;;;;;;23.70;99.90;;;;;;5103928;28;19920;-72
2022/08/18 09:30:38;;;;;;;;;;;23.80;99.90;;;;;;5103959;28;19995;-72
2022/08/18 09:33:17;;;;;;;;;;;23.90;99.90;;;;;;5103592;28;19920;-71
2022/08/18 09:35:59;;;;;;;;;;;23.70;99.90;;;;;;5103851;28;19928;-72
2022/08/18 09:41:32;;;;;;;;;;;24.00;99.90;;;;;;5103724;28;20319;-71
2022/08/18 09:44:09;;;;;;;;;;;24.00;99.90;;;;;;5103480;28;20254;-71
2022/08/18 09:47:06;;;;;;;;;;;24.10;99.90;;;;;;5103604;28;19920;-72
2022/08/18 09:49:40;;;;;;;;;;;24.30;99.90;;;;;;5061450;28;19929;-72
2022/08/18 09:52:21;;;;;;;;;;;24.50;99.90;;;;;;5095726;28;19934;-71
2022/08/18 09:54:52;;;;;;;;;;;24.50;99.90;;;;;;5102966;28;19952;-72
2022/08/18 09:57:20;;;;;;;;;;;24.50;99.90;;;;;;5103472;28;19991;-72
2022/08/18 09:59:52;;;;;;;;;;;24.50;99.90;;;;;;5103492;28;20262;-72
2022/08/18 10:02:35;;;;;;;;;;;24.50;99.90;;;;;;5103618;28;19959;-72
2022/08/18 10:05:17;;;;;;;;;;;24.60;99.90;;;;;;5102974;28;20116;-72
2022/08/18 10:07:45;;;;;;;;;;;24.70;99.90;;;;;;5102661;28;20207;-74
2022/08/18 10:10:18;;;;;;;;;;;24.80;99.90;;;;;;5103396;28;20131;-71
2022/08/18 10:12:56;;;;;;;;;;;24.80;99.90;;;;;;5103446;28;19959;-71
2022/08/18 10:15:53;;;;;;;;;;;24.80;99.90;;;;;;5103603;28;19920;-73
2022/08/18 10:18:36;;;;;;;;;;;24.80;99.90;;;;;;5021561;28;19941;-71
2022/08/18 10:21:13;;;;;;;;;;;24.80;99.90;;;;;;5093355;28;19920;-72
2022/08/18 10:23:48;;;;;;;;;;;24.90;99.90;;;;;;5103125;28;19951;-71
2022/08/18 10:26:36;;;;;;;;;;;24.80;99.90;;;;;;5103188;28;20003;-71
2022/08/18 10:29:05;;;;;;;;;;;24.80;99.90;;;;;;5103371;28;19947;-70
2022/08/18 10:31:52;;;;;;;;;;;24.80;99.90;;;;;;5103484;28;19920;-71
2022/08/18 10:34:37;;;;;;;;;;;24.80;99.90;;;;;;5102678;28;19958;-71
2022/08/18 10:37:04;;;;;;;;;;;24.90;99.90;;;;;;5103245;28;20172;-71
2022/08/18 10:39:43;;;;;;;;;;;25.00;99.90;;;;;;5103016;28;19920;-72
2022/08/18 10:42:14;;;;;;;;;;;25.00;99.90;;;;;;5103227;28;19956;-71
2022/08/18 10:44:43;;;;;;;;;;;24.90;99.90;;;;;;5102859;28;19934;-71
2022/08/18 10:47:19;;;;;;;;;;;25.00;99.90;;;;;;5102986;28;19995;-71
2022/08/18 10:49:48;;;;;;;;;;;25.10;99.90;;;;;;5103088;28;20123;-71
2022/08/18 10:52:37;;;;;;;;;;;25.20;99.90;;;;;;5103225;28;19920;-71
2022/08/18 10:55:21;;;;;;;;;;;25.30;99.90;;;;;;5102891;28;20123;-72
2022/08/18 10:58:06;;;;;;;;;;;25.50;99.90;;;;;;5102868;28;19920;-71
2022/08/18 11:00:41;;;;;;;;;;;25.60;99.90;;;;;;5103514;28;19920;-71
2022/08/18 11:03:13;;;;;;;;;;;25.70;99.90;;;;;;5103692;28;19920;-71
2022/08/18 11:05:41;;;;;;;;;;;25.90;99.90;;;;;;5103574;28;19928;-71
2022/08/18 11:08:12;;;;;;;;;;;25.90;99.90;;;;;;5102391;28;19920;-71
2022/08/18 11:10:42;;;;;;;;;;;26.00;99.90;;;;;;5105010;28;19927;-71
2022/08/18 11:13:13;;;;;;;;;;;26.10;99.90;;;;;;5106362;28;19946;-71
2022/08/18 11:15:47;;;;;;;;;;;26.20;99.90;;;;;;5106525;28;19965;-71
2022/08/18 11:18:20;;;;;;;;;;;26.30;99.90;;;;;;5106695;28;19966;-71
2022/08/18 11:20:47;;;;;;;;;;;26.30;99.90;;;;;;5106549;28;19920;-71
2022/08/18 11:23:15;;;;;;;;;;;26.40;99.90;;;;;;5105895;28;19951;-70
2022/08/18 11:25:43;;;;;;;;;;;26.50;99.90;;;;;;5106112;28;19959;-70
2022/08/18 11:28:16;;;;;;;;;;;26.80;99.90;;;;;;5106431;28;20176;-71
2022/08/18 11:30:45;;;;;;;;;;;27.10;99.90;;;;;;5106339;28;19975;-70
2022/08/18 11:33:14;;;;;;;;;;;27.20;99.90;;;;;;5105994;28;19951;-71
2022/08/18 11:35:45;;;;;;;;;;;27.10;99.90;;;;;;5105920;28;19952;-70
2022/08/18 11:38:12;;;;;;;;;;;27.00;99.90;;;;;;5106304;28;20000;-71
2022/08/18 11:40:40;;;;;;;;;;;27.00;99.90;;;;;;5106286;28;19920;-70
2022/08/18 11:43:11;;;;;;;;;;;27.00;99.90;;;;;;5105804;28;19963;-71
2022/08/18 11:45:51;;;;;;;;;;;26.90;99.90;;;;;;5105279;28;19920;-70
2022/08/18 11:48:19;;;;;;;;;;;26.70;99.90;;;;;;5105717;28;19924;-70
2022/08/18 11:50:48;;;;;;;;;;;26.80;99.90;;;;;;5106030;28;20170;-71
2022/08/18 11:53:21;;;;;;;;;;;26.90;99.90;;;;;;5105858;28;19920;-71
2022/08/18 11:56:02;;;;;;;;;;;27.10;99.90;;;;;;5105767;28;19966;-70
2022/08/18 11:58:39;;;;;;;;;;;27.20;99.90;;;;;;5105693;28;19920;-72
2022/08/18 12:01:08;;;;;;;;;;;27.50;99.90;;;;;;5105592;28;19920;-71
2022/08/18 12:03:41;;;;;;;;;;;27.70;99.90;;;;;;5105458;28;20146;-70
2022/08/18 12:06:12;;;;;;;;;;;27.90;99.90;;;;;;5105439;28;19927;-71
2022/08/18 12:08:49;;;;;;;;;;;28.00;99.90;;;;;;5104485;28;19949;-71
2022/08/18 12:11:18;;;;;;;;;;;28.00;99.90;;;;;;5105348;28;20227;-70
2022/08/18 12:13:46;;;;;;;;;;;28.10;99.90;;;;;;5105319;28;19957;-70
2022/08/18 12:16:16;;;;;;;;;;;28.10;99.90;;;;;;5105448;28;19951;-70
2022/08/18 12:18:43;;;;;;;;;;;28.10;99.90;;;;;;5105294;28;20174;-71
2022/08/18 12:21:10;;;;;;;;;;;28.10;99.90;;;;;;5105406;28;19920;-71
2022/08/18 12:23:39;;;;;;;;;;;28.10;99.90;;;;;;5103966;28;19921;-71
2022/08/18 12:26:06;;;;;;;;;;;28.10;99.90;;;;;;5105214;28;20116;-70
2022/08/18 12:28:32;;;;;;;;;;;27.90;99.90;;;;;;5105164;28;19927;-70
2022/08/18 12:30:59;;;;;;;;;;;27.60;99.90;;;;;;5105243;28;20174;-70
2022/08/18 12:33:27;;;;;;;;;;;27.50;99.90;;;;;;5105022;28;19951;-71
2022/08/18 12:35:54;;;;;;;;;;;27.50;99.90;;;;;;5105273;28;20283;-70
2022/08/18 12:38:22;;;;;;;;;;;27.50;99.90;;;;;;5105298;28;20168;-71
2022/08/18 12:40:48;;;;;;;;;;;27.60;99.90;;;;;;5105197;28;19924;-71
2022/08/18 12:43:15;;;;;;;;;;;27.50;99.90;;;;;;5104910;28;19920;-70
2022/08/18 12:45:42;;;;;;;;;;;27.70;99.90;;;;;;5104196;28;20030;-71
2022/08/18 12:48:09;;;;;;;;;;;27.90;99.90;;;;;;5104324;28;19952;-70
2022/08/18 12:50:38;;;;;;;;;;;28.10;99.90;;;;;;5104750;28;19920;-70
2022/08/18 12:53:04;;;;;;;;;;;28.30;99.90;;;;;;5104355;28;20231;-72
2022/08/18 12:55:33;;;;;;;;;;;28.30;99.90;;;;;;5104860;28;19920;-71
2022/08/18 12:58:00;;;;;;;;;;;28.40;99.90;;;;;;5105227;28;19987;-70
2022/08/18 13:00:27;;;;;;;;;;;28.50;99.90;;;;;;5104777;28;19954;-71
2022/08/18 13:02:54;;;;;;;;;;;28.50;99.90;;;;;;5104199;28;20182;-70
2022/08/18 13:05:20;;;;;;;;;;;28.70;99.90;;;;;;5104202;28;19928;-71
2022/08/18 13:07:48;;;;;;;;;;;28.80;99.90;;;;;;5104260;28;19920;-71
2022/08/18 13:10:15;;;;;;;;;;;29.00;99.90;;;;;;5104528;28;19920;-71
2022/08/18 13:12:42;;;;;;;;;;;29.10;99.90;;;;;;5104314;28;19920;-71
2022/08/18 13:15:09;;;;;;;;;;;29.20;99.90;;;;;;5104183;28;19958;-70
2022/08/18 13:17:36;;;;;;;;;;;29.40;99.90;;;;;;5104162;28;20070;-71
2022/08/18 13:20:05;;;;;;;;;;;29.50;99.90;;;;;;5104334;28;19928;-71
2022/08/18 13:22:32;;;;;;;;;;;29.60;99.90;;;;;;5103788;28;20123;-71
2022/08/18 13:25:00;;;;;;;;;;;29.80;99.90;;;;;;5104137;28;20266;-70
2022/08/18 13:27:26;;;;;;;;;;;30.10;99.90;;;;;;5104141;28;19951;-70
2022/08/18 13:29:53;;;;;;;;;;;29.90;99.90;;;;;;5104021;28;19952;-71
2022/08/18 13:32:20;;;;;;;;;;;29.50;99.90;;;;;;5103239;28;19943;-70
2022/08/18 13:34:46;;;;;;;;;;;29.20;99.90;;;;;;5103624;28;19920;-71
2022/08/18 13:37:14;;;;;;;;;;;29.10;99.90;;;;;;5104063;28;19983;-71
2022/08/18 13:39:40;;;;;;;;;;;29.20;99.90;;;;;;5104028;28;19927;-71
2022/08/18 13:42:08;;;;;;;;;;;29.30;99.90;;;;;;5103882;28;19942;-71
2022/08/18 13:44:36;;;;;;;;;;;29.50;99.90;;;;;;5102635;28;19986;-71
2022/08/18 13:47:04;;;;;;;;;;;29.50;99.90;;;;;;5102833;28;19920;-71
2022/08/18 13:49:30;;;;;;;;;;;29.50;99.90;;;;;;5103919;28;20255;-71
2022/08/18 13:51:58;;;;;;;;;;;29.50;99.90;;;;;;5103772;28;19995;-70
2022/08/18 13:54:27;;;;;;;;;;;29.80;99.90;;;;;;5103404;28;19920;-74
2022/08/18 13:56:54;;;;;;;;;;;30.10;99.90;;;;;;5103551;28;19920;-71
2022/08/18 13:59:22;;;;;;;;;;;30.40;99.90;;;;;;5103595;28;20154;-71
2022/08/18 14:01:50;;;;;;;;;;;30.50;99.80;;;;;;5103677;28;19963;-72
2022/08/18 14:04:16;;;;;;;;;;;30.60;99.40;;;;;;5103384;28;19920;-72
2022/08/18 14:06:43;;;;;;;;;;;30.40;99.30;;;;;;5102371;28;19959;-71
2022/08/18 14:09:10;;;;;;;;;;;30.50;99.80;;;;;;5103620;28;19951;-71
2022/08/18 14:11:37;;;;;;;;;;;30.60;99.60;;;;;;5103499;28;19927;-71
2022/08/18 14:14:05;;;;;;;;;;;30.60;99.30;;;;;;5103107;28;19954;-71
2022/08/18 14:16:33;;;;;;;;;;;30.50;99.00;;;;;;5103271;28;19951;-71
2022/08/18 14:27:14;;;;;;;;;;;30.00;99.50;;;;;;5103540;28;19964;-71
2022/08/18 14:29:42;;;;;;;;;;;30.10;99.90;;;;;;5103339;28;19921;-71
2022/08/18 14:32:10;;;;;;;;;;;30.00;99.20;;;;;;5103424;28;19928;-71
2022/08/18 14:34:36;;;;;;;;;;;29.70;99.10;;;;;;5102792;28;19926;-71
2022/08/18 14:37:03;;;;;;;;;;;29.70;99.60;;;;;;5103064;28;19999;-72
2022/08/18 14:39:30;;;;;;;;;;;29.80;99.50;;;;;;5103168;28;20207;-71
2022/08/18 14:41:57;;;;;;;;;;;29.80;99.20;;;;;;5102997;28;19927;-71
2022/08/18 14:44:24;;;;;;;;;;;29.80;99.50;;;;;;5103052;28;20200;-72
2022/08/18 14:46:51;;;;;;;;;;;29.60;99.40;;;;;;5106151;28;19955;-71
2022/08/18 14:49:20;;;;;;;;;;;29.50;99.30;;;;;;5107023;28;19920;-73
2022/08/18 14:51:47;;;;;;;;;;;29.40;99.50;;;;;;5107280;28;19966;-71